Ashley Falls, Massachusetts
Current Conditions -  °F | °C
As of 7:54 PM on Tuesday 21 Oct 2014 (Local Time) from KPSF Reporting Station
Haze Haze  
Wind Chill: 10°   Ceiling: 1100
Heat Index: 10°   Visibility: 6mi
Dew Point:   Wind: 0mph
Humidity: 96%   Direction: NA
Pressure: 29.93"   Gusts: NA
Location:  42.06°N, 73.34°W
Report Text: KPSF 212354Z AUTO 00000KT 6SM BR OVC011 10/09 A2993 RMK AO2 SLP131 60005 T01000094 10106 20094 53011
Loading
Personal Weather Stations






























Interactive Weather Map
Tropical Storm Tracking
New forecast layout! Learn more

10-Day Weather Forecast

Advertisements
Track Severe Weather on mobile